Time;durP1;ratioP1;P1;durP2;ratioP2;P2;SDS_P1;SDS_P2;PMS_P1;PMS_P2;Temp;Humidity;BMP_temperature;BMP_pressure;BME280_temperature;BME280_humidity;BME280_pressure;Samples;Min_cycle;Max_cycle;Signal;HPM_P1;HPM_P2
2021/07/10 00:02:06;;;;;;;6.42;5.30;;;;;;;22.84;54.78;100819.09;1648313;85;21041;-79
2021/07/10 00:04:34;;;;;;;8.90;5.62;;;;;;;22.82;54.71;100818.00;1641490;85;21273;-79
2021/07/10 00:07:00;;;;;;;8.30;5.65;;;;;;;22.83;54.52;100816.93;1655402;85;21055;-79
2021/07/10 00:09:28;;;;;;;7.20;5.42;;;;;;;22.84;56.17;100816.38;1662935;85;21063;-79
2021/07/10 00:11:56;;;;;;;5.17;4.70;;;;;;;22.68;56.19;100810.00;1661925;85;21122;-80
2021/07/10 00:14:23;;;;;;;6.62;5.92;;;;;;;22.50;57.73;100811.98;1663443;85;21064;-80
2021/07/10 00:16:50;;;;;;;5.65;5.17;;;;;;;22.45;57.63;100812.47;1651970;85;21103;-79
2021/07/10 00:19:16;;;;;;;7.12;5.20;;;;;;;22.36;58.10;100812.12;1658133;85;21008;-80
2021/07/10 00:21:43;;;;;;;5.30;4.78;;;;;;;22.31;58.35;100812.87;1648621;85;21034;-80
2021/07/10 00:24:09;;;;;;;6.72;5.47;;;;;;;22.24;58.69;100808.14;1662386;85;21138;-80
2021/07/10 00:26:36;;;;;;;6.17;5.65;;;;;;;22.23;58.98;100809.23;1662853;85;21547;-79
2021/07/10 00:29:02;;;;;;;8.70;5.67;;;;;;;22.28;58.93;100806.63;1648271;86;21021;-78
2021/07/10 00:31:29;;;;;;;7.75;6.40;;;;;;;22.26;58.54;100801.95;1660736;82;21066;-76
2021/07/10 00:33:55;;;;;;;7.20;6.50;;;;;;;22.15;58.62;100801.53;1679630;81;20993;-77
2021/07/10 00:36:22;;;;;;;9.43;6.35;;;;;;;21.95;59.01;100798.86;1641450;85;21152;-78
2021/07/10 00:38:48;;;;;;;6.78;5.72;;;;;;;21.84;60.22;100794.39;1677394;85;20985;-79
2021/07/10 00:41:17;;;;;;;8.63;5.83;;;;;;;21.87;59.89;100795.25;1660430;85;21091;-79
2021/07/10 00:43:48;;;;;;;8.33;6.53;;;;;;;21.90;59.91;100794.72;1660391;85;21513;-80
2021/07/10 00:46:20;;;;;;;8.65;6.30;;;;;;;21.83;59.92;100791.41;1661330;84;21060;-81
2021/07/10 00:48:48;;;;;;;6.28;5.70;;;;;;;20.63;60.29;100613.00;1663627;84;21047;-78
2021/07/10 00:51:15;;;;;;;7.08;6.47;;;;;;;21.64;61.30;100784.08;1624890;87;21025;-80
2021/07/10 00:53:42;;;;;;;9.50;6.62;;;;;;;21.64;61.47;100787.34;1627836;87;21071;-79
2021/07/10 00:56:08;;;;;;;;;;;;;;;21.67;60.98;100783.59;1643906;85;21124;-79
2021/07/10 00:58:35;;;;;;;7.40;6.40;;;;;;;21.65;60.81;100780.31;1657638;85;20233;-78
2021/07/10 01:01:03;;;;;;;7.58;6.67;;;;;;;21.51;60.89;100778.51;1630329;84;21058;-78
2021/07/10 01:03:33;;;;;;;7.00;6.37;;;;;;;21.42;61.04;100784.05;1621116;87;21066;-79
2021/07/10 01:06:01;;;;;;;7.42;6.75;;;;;;;21.38;61.20;100785.08;1617294;88;21506;-79
2021/07/10 01:08:34;;;;;;;7.72;6.28;;;;;;;21.37;61.42;100782.06;1615994;87;21136;-78
2021/07/10 01:11:02;;;;;;;8.75;6.50;;;;;;;21.38;61.80;100782.91;1623427;87;21701;-79
2021/07/10 01:13:31;;;;;;;8.23;6.75;;;;;;;21.36;61.88;100779.59;1614693;87;21011;-79
2021/07/10 01:15:58;;;;;;;7.17;6.50;;;;;;;21.30;61.82;100782.77;1607935;88;21007;-79
2021/07/10 01:18:25;;;;;;;7.42;6.72;;;;;;;21.25;62.01;100787.30;1606965;88;21510;-81
2021/07/10 01:20:53;;;;;;;8.68;6.83;;;;;;;21.17;62.15;100781.25;1604130;88;21649;-80
2021/07/10 01:23:21;;;;;;;6.47;5.97;;;;;;;21.18;62.35;100778.81;1667592;82;21014;-80
2021/07/10 01:25:48;;;;;;;9.03;8.40;;;;;;;21.17;62.46;100773.63;1712915;83;21569;-79
2021/07/10 01:28:15;;;;;;;9.55;6.67;;;;;;;21.12;62.61;100775.73;1726507;82;21116;-78
2021/07/10 01:30:43;;;;;;;9.10;7.12;;;;;;;21.09;62.80;100769.45;1724937;82;21058;-79
2021/07/10 01:33:10;;;;;;;7.30;6.70;;;;;;;21.06;62.92;100771.83;1721156;81;21153;-77
2021/07/10 01:35:38;;;;;;;10.18;6.50;;;;;;;21.07;62.98;100772.94;1714586;83;21014;-79
2021/07/10 01:38:09;;;;;;;6.97;6.55;;;;;;;21.14;63.32;100775.50;1723441;83;20996;-78
2021/07/10 01:40:37;;;;;;;8.18;6.58;;;;;;;21.22;62.81;100771.55;1720004;83;21042;-79
2021/07/10 01:43:05;;;;;;;7.58;6.78;;;;;;;21.18;62.80;100770.67;1686789;83;21129;-78
2021/07/10 01:45:33;;;;;;;7.15;6.45;;;;;;;21.08;62.88;100772.41;1706405;80;21041;-79
2021/07/10 01:48:03;;;;;;;6.33;5.80;;;;;;;21.00;63.57;100761.45;1688482;83;21037;-78
2021/07/10 01:50:32;;;;;;;7.62;6.53;;;;;;;21.06;64.53;100766.41;1689779;83;21175;-80
2021/07/10 01:53:00;;;;;;;7.53;6.50;;;;;;;21.17;63.62;100761.43;1683193;83;21410;-81
2021/07/10 01:55:28;;;;;;;7.00;6.35;;;;;;;21.25;62.96;100762.89;1679884;84;21605;-79
2021/07/10 01:57:55;;;;;;;7.30;6.78;;;;;;;21.18;62.89;100757.12;1661749;84;20990;-80
2021/07/10 02:00:28;;;;;;;8.83;7.92;;;;;;;21.09;63.03;100760.50;1648669;84;21164;-79
2021/07/10 02:02:55;;;;;;;8.23;7.35;;;;;;;20.98;63.31;100760.88;1613740;87;21078;-79
2021/07/10 02:05:25;;;;;;;8.83;6.25;;;;;;;20.92;63.50;100756.45;1622228;87;21083;-81
2021/07/10 02:07:56;;;;;;;6.72;6.05;;;;;;;20.91;63.69;100767.02;1601185;87;22275;-78
2021/07/10 02:10:22;;;;;;;6.83;6.22;;;;;;;20.97;63.92;100763.31;1590287;89;21149;-78
2021/07/10 02:12:53;;;;;;;8.30;6.53;;;;;;;20.99;63.97;100762.53;1586132;88;21061;-78
2021/07/10 02:15:20;;;;;;;8.88;6.70;;;;;;;20.95;63.86;100757.33;1598760;88;21063;-79
2021/07/10 02:17:47;;;;;;;8.00;7.05;;;;;;;20.91;63.90;100758.34;1589489;89;21045;-80
2021/07/10 02:20:20;;;;;;;6.62;6.03;;;;;;;20.87;64.35;100766.69;1661920;85;21037;-79
2021/07/10 02:22:48;;;;;;;6.90;6.00;;;;;;;20.91;64.25;100754.83;1669822;83;21017;-79
2021/07/10 02:25:19;;;;;;;8.05;6.67;;;;;;;20.97;63.87;100757.35;1691523;83;21507;-78
2021/07/10 02:27:45;;;;;;;13.98;6.83;;;;;;;21.03;63.75;100761.50;1691200;83;20995;-79
2021/07/10 02:30:18;;;;;;;12.13;9.48;;;;;;;21.06;63.78;100759.13;1690032;83;20987;-79
2021/07/10 02:32:47;;;;;;;12.80;8.68;;;;;;;21.22;63.65;100769.64;1695834;83;21026;-78
2021/07/10 02:35:15;;;;;;;8.43;7.53;;;;;;;21.48;62.94;100762.73;1695074;83;21050;-78
2021/07/10 02:37:43;;;;;;;8.28;7.53;;;;;;;21.80;62.20;100757.98;1684280;82;21108;-79
2021/07/10 02:40:12;;;;;;;13.30;6.45;;;;;;;22.09;61.32;100755.86;1681577;83;20999;-79
2021/07/10 02:42:39;;;;;;;9.18;6.85;;;;;;;22.34;60.54;100754.54;1659866;82;21082;-79
2021/07/10 02:45:10;;;;;;;7.17;6.47;;;;;;;22.59;60.02;100755.85;1685836;82;21077;-79
2021/07/10 02:47:37;;;;;;;10.85;7.15;;;;;;;22.85;59.41;100756.34;1682371;84;21062;-78
2021/07/10 02:50:10;;;;;;;7.22;6.53;;;;;;;23.15;58.41;100752.75;1687199;83;21530;-80
2021/07/10 02:52:37;;;;;;;8.63;7.12;;;;;;;23.39;57.55;100749.91;1688460;83;21020;-79
2021/07/10 02:55:05;;;;;;;12.30;8.00;;;;;;;23.61;56.92;100752.47;1685738;83;21057;-77
2021/07/10 02:57:32;;;;;;;10.15;6.75;;;;;;;23.75;56.45;100751.98;1686636;83;21534;-79
2021/07/10 03:00:00;;;;;;;8.10;7.30;;;;;;;23.93;56.06;100754.81;1691072;83;21108;-79
2021/07/10 03:02:31;;;;;;;7.70;6.60;;;;;;;24.16;55.71;100751.59;1689809;83;21647;-81
2021/07/10 03:05:06;;;;;;;8.63;5.90;;;;;;;24.53;55.00;100751.14;1687413;83;21056;-79
2021/07/10 03:07:39;;;;;;;7.75;7.00;;;;;;;25.00;53.67;100753.57;1685565;83;20986;-78
2021/07/10 03:10:14;;;;;;;10.43;6.55;;;;;;;25.42;52.51;100748.31;1690193;83;21172;-80
2021/07/10 03:12:45;;;;;;;8.48;7.12;;;;;;;25.62;51.74;100745.27;1693675;83;21459;-81
2021/07/10 03:15:15;;;;;;;7.33;6.62;;;;;;;25.64;51.65;100746.61;1689340;83;21040;-81
2021/07/10 03:17:43;;;;;;;12.75;6.90;;;;;;;25.65;51.75;100744.69;1691835;83;21385;-81
2021/07/10 03:20:14;;;;;;;8.10;6.03;;;;;;;25.72;51.04;100745.20;1690952;83;21052;-79
2021/07/10 03:22:41;;;;;;;7.33;6.12;;;;;;;25.86;50.27;100748.69;1681256;84;21005;-80
2021/07/10 03:25:10;;;;;;;7.30;5.33;;;;;;;26.08;49.58;100749.70;1644361;85;21045;-79
2021/07/10 03:27:36;;;;;;;6.03;4.67;;;;;;;26.28;48.51;100742.74;1642954;85;21534;-78
2021/07/10 03:30:07;;;;;;;5.67;4.45;;;;;;;26.38;46.60;100743.22;1616521;87;21555;-80
2021/07/10 03:32:33;;;;;;;8.25;6.00;;;;;;;26.42;46.93;100741.54;1638991;85;20990;-79
2021/07/10 03:34:59;;;;;;;5.87;4.80;;;;;;;26.48;46.49;100747.23;1646853;85;21054;-82
2021/07/10 03:37:26;;;;;;;9.53;4.97;;;;;;;26.52;46.75;100740.64;1649678;85;21113;-79
2021/07/10 03:39:51;;;;;;;6.35;4.62;;;;;;;26.64;45.62;100737.03;1647030;85;21044;-80
2021/07/10 03:42:17;;;;;;;5.33;4.28;;;;;;;26.71;45.22;100739.42;1646545;85;21020;-80
2021/07/10 03:44:43;;;;;;;4.33;3.92;;;;;;;26.89;45.05;100739.27;1650808;85;21077;-78
2021/07/10 03:47:10;;;;;;;4.37;3.85;;;;;;;27.16;44.42;100738.19;1663853;85;20993;-80
2021/07/10 03:49:36;;;;;;;8.98;4.05;;;;;;;27.54;43.81;100740.25;1667036;83;21002;-80
2021/07/10 03:52:04;;;;;;;6.80;4.17;;;;;;;27.74;42.81;100738.59;1702875;83;21040;-80
2021/07/10 03:54:32;;;;;;;4.37;3.45;;;;;;;27.91;42.60;100734.58;1692827;83;21061;-80
2021/07/10 03:56:58;;;;;;;6.30;4.35;;;;;;;28.13;42.09;100736.18;1691051;83;21066;-79
2021/07/10 03:59:26;;;;;;;5.03;4.20;;;;;;;28.36;41.40;100726.79;1692626;84;21084;-79
2021/07/10 04:01:54;;;;;;;5.33;4.28;;;;;;;28.56;41.37;100723.48;1685595;82;21001;-78
2021/07/10 04:04:20;;;;;;;4.75;3.87;;;;;;;28.86;40.61;100722.16;1701178;83;21050;-78
2021/07/10 04:06:46;;;;;;;4.35;4.05;;;;;;;29.05;39.73;100727.56;1679880;83;21060;-78
2021/07/10 04:09:13;;;;;;;4.45;3.87;;;;;;;29.13;39.63;100726.88;1685070;83;21034;-78
2021/07/10 04:11:41;;;;;;;4.83;3.95;;;;;;;29.15;39.30;100725.22;1695508;83;21010;-78
2021/07/10 04:14:08;;;;;;;4.85;3.67;;;;;;;29.19;39.04;100720.17;1691403;83;20995;-83
2021/07/10 04:16:34;;;;;;;3.95;3.55;;;;;;;29.37;39.06;100725.31;1686033;83;21069;-80
2021/07/10 04:19:01;;;;;;;11.93;4.08;;;;;;;29.52;38.45;100713.21;1679792;83;21032;-80
2021/07/10 04:21:27;;;;;;;4.33;3.87;;;;;;;29.63;38.23;100712.41;1686484;83;21089;-81
2021/07/10 04:23:54;;;;;;;2.95;2.72;;;;;;;29.72;38.15;100709.77;1684116;83;20963;-80
2021/07/10 04:26:20;;;;;;;5.70;2.72;;;;;;;29.83;37.97;100705.13;1688775;83;21101;-83
2021/07/10 04:28:48;;;;;;;3.40;3.20;;;;;;;29.95;37.52;100705.98;1657715;85;21050;-82
2021/07/10 04:31:15;;;;;;;7.65;4.15;;;;;;;29.93;37.27;100706.83;1640202;83;21058;-80
2021/07/10 04:33:42;;;;;;;3.60;3.40;;;;;;;29.80;37.97;100704.39;1618772;85;21071;-81
2021/07/10 04:36:08;;;;;;;6.42;3.27;;;;;;;29.77;37.87;100702.81;1661086;85;21040;-82
2021/07/10 04:38:37;;;;;;;4.60;3.60;;;;;;;29.66;38.39;100706.31;1637192;86;21089;-83
2021/07/10 04:41:06;;;;;;;5.33;3.37;;;;;;;29.63;38.65;100698.67;1641204;86;21043;-80
2021/07/10 04:43:34;;;;;;;7.53;3.92;;;;;;;29.62;38.41;100692.95;1642365;86;21199;-81
2021/07/10 04:46:03;;;;;;;7.67;3.80;;;;;;;29.83;38.49;100693.33;1645224;86;21045;-79
2021/07/10 04:48:30;;;;;;;4.53;3.92;;;;;;;29.95;38.55;100691.41;1663168;85;21061;-81
2021/07/10 04:50:57;;;;;;;4.97;3.37;;;;;;;29.96;38.18;100692.48;1633029;87;21068;-80
2021/07/10 04:53:23;;;;;;;5.80;3.35;;;;;;;30.03;38.12;100698.93;1619317;87;21096;-81
2021/07/10 04:55:49;;;;;;;4.50;3.52;;;;;;;30.00;37.68;100698.16;1626968;87;21008;-80
2021/07/10 04:58:17;;;;;;;5.30;3.90;;;;;;;29.99;37.73;100679.50;1641198;86;21063;-82
2021/07/10 05:00:44;;;;;;;9.60;4.00;;;;;;;30.05;37.86;100681.56;1657783;85;20992;-81
2021/07/10 05:03:11;;;;;;;7.08;4.30;;;;;;;30.17;37.90;100679.62;1646420;86;21702;-80
2021/07/10 05:05:39;;;;;;;5.67;3.55;;;;;;;30.14;38.62;100689.86;1643787;86;21056;-79
2021/07/10 05:08:07;;;;;;;5.17;4.12;;;;;;;30.04;37.86;100684.85;1640781;86;20964;-80
2021/07/10 05:10:36;;;;;;;6.72;3.62;;;;;;;29.96;37.97;100682.86;1639663;86;21087;-80
2021/07/10 05:13:04;;;;;;;5.03;3.90;;;;;;;29.92;38.12;100680.48;1638678;86;21083;-81
2021/07/10 05:15:30;;;;;;;5.33;4.25;;;;;;;29.72;38.19;100680.92;1639151;87;21036;-81
2021/07/10 05:17:56;;;;;;;5.40;4.00;;;;;;;29.79;38.64;100680.77;1687539;83;21005;-81
2021/07/10 05:20:25;;;;;;;4.12;3.75;;;;;;;29.70;39.09;100680.68;1692352;84;21130;-83
2021/07/10 05:22:51;;;;;;;5.90;3.60;;;;;;;29.75;39.14;100673.47;1692479;83;21178;-83
2021/07/10 05:25:18;;;;;;;3.42;3.12;;;;;;;30.06;38.33;100674.39;1698318;83;21059;-82
2021/07/10 05:27:45;;;;;;;3.98;3.67;;;;;;;30.37;37.63;100667.35;1653298;85;21745;-81
2021/07/10 05:30:16;;;;;;;3.72;3.52;;;;;;;30.49;37.30;100670.32;1691834;83;21011;-80
2021/07/10 05:32:46;;;;;;;5.55;3.45;;;;;;;30.61;37.22;100676.61;1694744;83;20984;-82
2021/07/10 05:35:18;;;;;;;3.83;3.52;;;;;;;30.70;37.01;100676.66;1688629;83;21000;-82
2021/07/10 05:37:42;;;;;;;3.80;3.47;;;;;;;30.76;37.11;100683.11;1677420;83;21123;-82
2021/07/10 05:40:12;;;;;;;4.78;3.00;;;;;;;30.84;36.46;100689.20;1677816;84;21065;-81
2021/07/10 05:42:38;;;;;;;2.70;2.50;;;;;;;30.79;37.26;100683.83;1660957;83;21069;-81
2021/07/10 05:45:07;;;;;;;2.77;2.58;;;;;;;30.75;36.77;100692.47;1646723;85;21006;-82
2021/07/10 05:47:35;;;;;;;3.65;3.35;;;;;;;30.83;36.37;100690.31;1643358;85;21546;-80
2021/07/10 05:50:03;;;;;;;3.47;2.75;;;;;;;30.91;36.23;100697.59;1608085;88;21157;-74
2021/07/10 05:52:29;;;;;;;3.25;3.15;;;;;;;30.94;36.09;100694.22;1653580;86;21078;-80
2021/07/10 05:54:58;;;;;;;5.30;2.80;;;;;;;31.09;35.83;100688.28;1656504;86;21018;-79
2021/07/10 05:57:26;;;;;;;3.17;2.90;;;;;;;31.21;35.57;100684.37;1693054;83;21053;-80
2021/07/10 05:59:52;;;;;;;2.58;2.47;;;;;;;31.49;35.27;100681.94;1677845;84;21048;-82
2021/07/10 06:02:18;;;;;;;2.83;2.50;;;;;;;31.59;35.13;100681.07;1684273;84;21043;-80
2021/07/10 06:04:44;;;;;;;2.40;2.27;;;;;;;31.56;35.55;100680.33;1672524;83;20993;-80
2021/07/10 06:07:10;;;;;;;6.22;2.72;;;;;;;31.72;35.12;100682.06;1686700;84;21051;-81
2021/07/10 06:09:37;;;;;;;3.52;2.42;;;;;;;31.98;34.60;100682.05;1687723;83;21740;-80
2021/07/10 06:12:06;;;;;;;4.53;2.42;;;;;;;32.25;34.12;100679.30;1685029;83;20999;-84
2021/07/10 06:14:42;;;;;;;3.67;2.47;;;;;;;32.23;33.98;100676.89;1690262;83;21062;-83
2021/07/10 06:17:15;;;;;;;2.60;2.20;;;;;;;32.10;34.42;100680.61;1673553;84;21036;-84
2021/07/10 06:19:41;;;;;;;3.52;2.30;;;;;;;32.07;34.99;100678.52;1690776;83;21077;-83
2021/07/10 06:22:08;;;;;;;7.72;2.83;;;;;;;32.25;33.60;100680.13;1684170;83;21129;-86
2021/07/10 06:24:35;;;;;;;2.90;2.60;;;;;;;32.39;33.90;100672.46;1689645;83;21543;-80
2021/07/10 06:27:01;;;;;;;3.42;2.70;;;;;;;32.55;33.46;100674.69;1687495;84;21579;-84
2021/07/10 06:29:27;;;;;;;3.33;2.62;;;;;;;32.69;33.08;100671.20;1674598;83;20983;-78
2021/07/10 06:31:53;;;;;;;5.55;2.20;;;;;;;32.74;32.63;100669.64;1692136;81;21046;-82
2021/07/10 06:34:20;;;;;;;5.28;2.58;;;;;;;32.82;32.58;100676.27;1691961;82;21378;-83
2021/07/10 06:36:46;;;;;;;3.90;2.33;;;;;;;32.98;32.33;100668.23;1673740;83;21055;-83
2021/07/10 06:39:12;;;;;;;3.70;1.90;;;;;;;33.07;32.10;100669.58;1688875;83;21007;-82
2021/07/10 06:41:38;;;;;;;5.92;2.08;;;;;;;33.21;31.69;100673.51;1671943;83;21067;-82
2021/07/10 06:44:05;;;;;;;3.30;1.67;;;;;;;33.33;31.76;100673.61;1691803;83;21039;-83
2021/07/10 06:46:32;;;;;;;3.22;1.80;;;;;;;33.58;30.70;100669.05;1688848;82;20995;-82
2021/07/10 06:48:58;;;;;;;2.55;2.35;;;;;;;33.82;30.64;100667.61;1694165;83;21008;-84
2021/07/10 06:51:24;;;;;;;3.90;1.62;;;;;;;33.96;30.97;100664.55;1697124;83;22311;-84
2021/07/10 06:53:50;;;;;;;2.75;1.50;;;;;;;33.98;30.42;100665.81;1700329;83;21027;-82
2021/07/10 06:56:16;;;;;;;1.50;1.00;;;;;;;34.07;29.45;100668.52;1697163;83;21464;-82
2021/07/10 06:58:44;;;;;;;2.98;1.12;;;;;;;34.05;28.40;100670.23;1699098;83;20999;-81
2021/07/10 07:01:11;;;;;;;4.83;0.98;;;;;;;33.98;28.74;100666.41;1663250;82;21077;-90
2021/07/10 07:03:38;;;;;;;2.15;1.02;;;;;;;33.94;28.87;100672.62;1642664;86;21007;-87
2021/07/10 07:06:04;;;;;;;1.47;0.70;;;;;;;33.90;28.83;100677.19;1656536;84;21025;-86
2021/07/10 07:08:32;;;;;;;4.10;1.02;;;;;;;33.85;27.67;100674.66;1656161;85;21166;-89
2021/07/10 07:10:58;;;;;;;3.30;1.40;;;;;;;33.54;28.18;100682.72;1661747;85;21949;-86
2021/07/10 07:13:24;;;;;;;1.62;1.50;;;;;;;33.39;28.59;100682.52;1627636;86;21077;-84
2021/07/10 07:15:53;;;;;;;2.50;1.42;;;;;;;33.20;28.48;100691.23;1666217;85;21716;-84
2021/07/10 07:18:19;;;;;;;2.12;1.32;;;;;;;33.03;29.02;100680.48;1697155;83;21046;-83
2021/07/10 07:20:46;;;;;;;1.42;1.17;;;;;;;33.01;29.33;100675.86;1684521;83;21566;-82
2021/07/10 07:23:12;;;;;;;3.30;1.20;;;;;;;33.02;29.48;100671.97;1682383;83;21045;-85
2021/07/10 07:25:38;;;;;;;3.37;1.07;;;;;;;33.01;29.46;100671.72;1687523;83;21399;-78
2021/07/10 07:28:05;;;;;;;3.00;2.08;;;;;;;33.19;29.16;100667.51;1680543;83;21036;-80
2021/07/10 07:30:35;;;;;;;1.42;1.32;;;;;;;33.40;28.92;100665.61;1687890;83;21618;-82
2021/07/10 07:33:04;;;;;;;1.85;1.37;;;;;;;33.28;28.42;100663.55;1696172;83;21567;-85
2021/07/10 07:35:31;;;;;;;3.12;1.35;;;;;;;32.97;28.79;100655.59;1693211;83;21034;-85
2021/07/10 07:37:57;;;;;;;2.47;1.00;;;;;;;32.93;29.14;100662.92;1694506;83;21565;-84
2021/07/10 07:40:23;;;;;;;1.70;1.47;;;;;;;32.98;28.88;100662.70;1667731;85;21173;-85
2021/07/10 07:42:51;;;;;;;2.83;1.60;;;;;;;32.97;28.93;100665.25;1660631;86;21010;-87
2021/07/10 07:45:18;;;;;;;3.00;1.32;;;;;;;32.86;29.07;100662.62;1659589;86;21073;-85
2021/07/10 07:47:45;;;;;;;3.30;2.00;;;;;;;32.63;29.26;100672.52;1635840;86;21065;-87
2021/07/10 07:50:14;;;;;;;1.98;1.77;;;;;;;32.37;29.64;100673.36;1627950;87;21147;-87
2021/07/10 07:52:42;;;;;;;5.83;2.02;;;;;;;32.19;29.39;100664.87;1662489;85;20975;-88
2021/07/10 07:55:10;;;;;;;2.30;1.35;;;;;;;32.12;29.72;100665.95;1656778;85;21101;-87
2021/07/10 07:57:39;;;;;;;2.30;1.45;;;;;;;32.06;29.98;100672.75;1641384;86;21078;-88
2021/07/10 08:00:12;;;;;;;6.22;2.10;;;;;;;32.08;30.00;100666.34;1667665;85;21007;-86
2021/07/10 08:02:38;;;;;;;2.20;1.62;;;;;;;32.04;30.14;100667.56;1658427;84;21096;-85
2021/07/10 08:06:36;;;;;;;3.62;1.67;;;;;;;31.92;30.44;100665.44;1799563;77;22896;-85
2021/07/10 08:09:04;;;;;;;6.80;1.55;;;;;;;31.82;30.73;100663.82;1772536;80;21086;-86
2021/07/10 08:11:30;;;;;;;2.42;1.90;;;;;;;31.84;31.03;100669.02;1738500;78;21006;-85
2021/07/10 08:13:58;;;;;;;4.35;2.25;;;;;;;31.84;31.39;100670.97;1660966;83;21097;-86
2021/07/10 08:16:25;;;;;;;2.98;2.20;;;;;;;31.77;31.51;100675.00;1668951;85;20995;-84
2021/07/10 08:18:54;;;;;;;3.90;2.08;;;;;;;31.68;31.61;100671.42;1668137;85;21067;-86
2021/07/10 08:21:21;;;;;;;0.98;0.98;;;;;;;31.59;31.41;100671.43;1657899;85;21628;-83
2021/07/10 08:23:47;;;;;;;2.08;1.85;;;;;;;31.50;31.04;100671.98;1687974;83;21056;-86
2021/07/10 08:26:13;;;;;;;4.03;2.05;;;;;;;31.27;31.00;100647.86;1696185;83;21059;-85
2021/07/10 08:28:40;;;;;;;1.72;1.65;;;;;;;31.29;31.12;100668.16;1698849;83;21017;-83
2021/07/10 08:31:06;;;;;;;7.10;1.92;;;;;;;31.16;31.43;100665.80;1690601;83;20973;-83
2021/07/10 08:33:32;;;;;;;6.65;2.35;;;;;;;30.96;31.69;100662.48;1701478;81;21071;-87
2021/07/10 08:35:58;;;;;;;2.37;2.10;;;;;;;30.82;32.03;100658.44;1696607;83;21077;-83
2021/07/10 08:38:26;;;;;;;6.17;2.47;;;;;;;30.80;32.34;100660.70;1694558;83;21054;-85
2021/07/10 08:40:53;;;;;;;3.05;1.77;;;;;;;30.77;32.34;100658.57;1696970;83;21086;-81
2021/07/10 08:43:21;;;;;;;3.12;1.75;;;;;;;30.72;32.48;100655.95;1696193;83;21085;-81
2021/07/10 08:45:50;;;;;;;2.22;1.95;;;;;;;30.67;32.66;100657.48;1689574;82;21075;-79
2021/07/10 08:48:17;;;;;;;5.25;2.05;;;;;;;30.63;32.75;100651.00;1695929;83;21652;-86
2021/07/10 08:50:43;;;;;;;2.83;2.47;;;;;;;30.63;32.85;100651.80;1694100;83;21021;-84
2021/07/10 08:53:10;;;;;;;4.28;2.20;;;;;;;30.63;32.57;100651.00;1687718;83;21631;-85
2021/07/10 08:55:37;;;;;;;4.08;2.58;;;;;;;30.57;32.59;100649.48;1691897;81;21107;-89
2021/07/10 08:58:05;;;;;;;2.33;2.12;;;;;;;30.51;32.34;100646.63;1688832;84;21031;-85
2021/07/10 09:00:39;;;;;;;4.75;2.70;;;;;;;30.44;32.53;100647.90;1703784;83;21061;-86
2021/07/10 09:03:07;;;;;;;4.22;2.70;;;;;;;30.44;33.24;100646.53;1738450;82;21128;-84
2021/07/10 09:05:36;;;;;;;2.85;2.65;;;;;;;30.50;33.03;100645.00;1729308;82;21018;-86
2021/07/10 09:08:25;;;;;;;4.28;2.90;;;;;;;30.58;33.28;100641.50;1719792;82;21087;-84
2021/07/10 09:11:07;;;;;;;2.25;2.05;;;;;;;30.62;33.23;100642.48;1734229;82;21053;-81
2021/07/10 09:13:48;;;;;;;4.65;2.40;;;;;;;30.66;33.20;100647.59;1728169;82;21045;-83
2021/07/10 09:16:30;;;;;;;2.45;2.35;;;;;;;30.66;33.52;100650.34;1718701;82;21010;-84
2021/07/10 09:19:11;;;;;;;4.62;2.65;;;;;;;30.65;33.05;100645.42;1722661;82;21435;-85
2021/07/10 09:21:52;;;;;;;2.75;2.55;;;;;;;30.66;32.78;100644.27;1715292;82;20966;-83
2021/07/10 09:24:34;;;;;;;2.20;2.10;;;;;;;30.70;32.91;100646.41;1720226;82;22133;-83
2021/07/10 09:27:07;;;;;;;7.37;2.15;;;;;;;30.80;33.21;100643.39;1716060;82;21052;-85
2021/07/10 09:29:45;;;;;;;2.65;2.42;;;;;;;30.79;32.76;100649.44;1717469;82;21788;-85
2021/07/10 09:32:21;;;;;;;2.87;2.12;;;;;;;30.72;32.64;100646.32;1723369;82;21353;-86
2021/07/10 09:34:52;;;;;;;2.02;1.92;;;;;;;30.65;32.86;100639.11;1709825;82;21029;-84
2021/07/10 09:37:29;;;;;;;2.92;2.33;;;;;;;30.60;33.18;100644.17;1708034;83;20962;-83
2021/07/10 09:40:04;;;;;;;2.50;2.12;;;;;;;30.58;33.10;100640.13;1701990;83;21077;-84
2021/07/10 09:42:39;;;;;;;4.42;3.17;;;;;;;30.53;33.04;100643.00;1704950;83;21479;-86
2021/07/10 09:45:18;;;;;;;5.37;2.17;;;;;;;30.53;33.82;100638.88;1695245;83;20982;-83
2021/07/10 09:47:47;;;;;;;2.92;2.47;;;;;;;30.56;33.32;100635.50;1639989;86;21070;-86
2021/07/10 09:50:21;;;;;;;5.12;2.62;;;;;;;30.58;33.42;100627.75;1672390;84;20978;-86
2021/07/10 09:52:48;;;;;;;6.53;2.33;;;;;;;30.62;33.12;100627.36;1664547;84;21055;-83
2021/07/10 09:55:17;;;;;;;3.75;2.90;;;;;;;30.66;33.27;100625.02;1682722;83;21350;-83
2021/07/10 09:57:45;;;;;;;4.78;2.75;;;;;;;30.65;33.03;100623.41;1701587;83;20955;-83
2021/07/10 10:00:16;;;;;;;6.03;2.77;;;;;;;30.56;33.08;100626.69;1702811;83;21030;-83
2021/07/10 10:02:53;;;;;;;14.23;11.20;;;;;;;30.48;32.85;100623.33;1715158;83;21544;-83
2021/07/10 10:05:29;;;;;;;3.17;2.42;;;;;;;30.39;32.61;100620.53;1701418;83;22230;-83
2021/07/10 10:08:03;;;;;;;6.05;2.35;;;;;;;30.28;32.87;100621.89;1686999;83;21417;-83
2021/07/10 10:10:37;;;;;;;5.58;3.45;;;;;;;30.20;32.96;100615.78;1623232;86;21079;-83
2021/07/10 10:13:14;;;;;;;9.10;3.27;;;;;;;30.20;33.03;100623.46;1615460;86;21017;-84
2021/07/10 10:15:49;;;;;;;5.10;3.40;;;;;;;30.21;33.08;100611.89;1675334;84;21019;-82
2021/07/10 10:18:24;;;;;;;10.32;4.28;;;;;;;30.17;33.29;100613.66;1673412;84;21502;-82
2021/07/10 10:20:53;;;;;;;3.60;3.22;;;;;;;30.14;33.53;100608.77;1672863;85;21174;-83
2021/07/10 10:23:22;;;;;;;3.08;2.85;;;;;;;30.12;33.48;100606.36;1672882;85;21033;-81
2021/07/10 10:25:49;;;;;;;6.10;2.37;;;;;;;30.08;33.21;100609.46;1670781;84;21047;-82
2021/07/10 10:28:20;;;;;;;7.45;2.92;;;;;;;30.00;33.52;100608.85;1671218;84;21019;-82
2021/07/10 10:30:53;;;;;;;4.25;2.77;;;;;;;29.99;33.62;100605.84;1651117;86;21117;-80
2021/07/10 10:33:22;;;;;;;2.92;2.52;;;;;;;30.04;33.68;100601.59;1681326;83;21063;-80
2021/07/10 10:35:53;;;;;;;7.33;2.50;;;;;;;30.14;33.69;100597.78;1726781;82;21096;-81
2021/07/10 10:38:20;;;;;;;2.80;2.60;;;;;;;30.20;33.54;100599.29;1731389;82;21520;-81
2021/07/10 10:40:51;;;;;;;10.72;3.08;;;;;;;30.26;33.40;100602.14;1726879;82;20983;-84
2021/07/10 10:43:20;;;;;;;4.58;2.80;;;;;;;30.26;33.19;100597.45;1729890;82;21139;-81
2021/07/10 10:45:47;;;;;;;3.27;2.87;;;;;;;30.21;33.21;100594.83;1724435;82;21168;-82
2021/07/10 10:48:35;;;;;;;6.78;2.70;;;;;;;30.20;33.21;100591.05;1726949;82;20947;-82
2021/07/10 10:51:01;;;;;;;3.80;2.72;;;;;;;30.20;33.22;100583.59;1723785;82;20994;-80
2021/07/10 10:53:27;;;;;;;4.10;2.37;;;;;;;30.19;33.36;100582.53;1725142;82;21029;-81
2021/07/10 10:55:53;;;;;;;3.08;2.90;;;;;;;30.18;33.04;100583.11;1723818;82;21047;-81
2021/07/10 10:58:30;;;;;;;3.60;3.22;;;;;;;30.19;33.19;100579.21;1727708;82;21546;-84
2021/07/10 11:01:02;;;;;;;4.25;2.45;;;;;;;30.19;33.49;100577.84;1684963;84;21074;-82
2021/07/10 11:03:38;;;;;;;5.50;3.15;;;;;;;30.20;33.60;100574.55;1671382;84;21140;-81
2021/07/10 11:06:05;;;;;;;3.35;3.05;;;;;;;30.19;33.19;100577.84;1665804;84;21087;-88
2021/07/10 11:08:37;;;;;;;3.83;2.50;;;;;;;30.12;33.19;100580.25;1676329;85;21137;-83
2021/07/10 11:11:09;;;;;;;3.83;3.15;;;;;;;30.05;33.63;100579.87;1680793;85;21038;-78
2021/07/10 11:13:44;;;;;;;5.95;3.12;;;;;;;30.02;33.40;100568.13;1687573;84;21024;-84
2021/07/10 11:16:16;;;;;;;2.98;2.80;;;;;;;30.03;33.63;100574.69;1688513;84;21094;-83
2021/07/10 11:18:53;;;;;;;2.95;2.85;;;;;;;30.07;33.49;100570.75;1686433;84;21074;-84
2021/07/10 11:21:41;;;;;;;3.33;3.12;;;;;;;30.11;33.46;100573.11;1688594;84;21499;-82
2021/07/10 11:24:21;;;;;;;3.37;3.00;;;;;;;30.13;33.51;100568.68;1677973;84;21040;-83
2021/07/10 11:27:00;;;;;;;3.15;2.92;;;;;;;30.16;33.26;100565.28;1684068;85;21071;-82
2021/07/10 11:29:37;;;;;;;2.25;2.12;;;;;;;30.16;33.40;100570.78;1680282;85;21494;-82
2021/07/10 11:32:19;;;;;;;2.83;2.60;;;;;;;30.20;33.28;100570.42;1680701;85;21094;-82
2021/07/10 11:34:57;;;;;;;2.75;2.55;;;;;;;30.25;33.10;100569.73;1677124;84;21094;-82